sensor_id;sensor_type;location;lat;lon;timestamp;P1;durP1;ratioP1;P2;durP2;ratioP2
29200;SDS011;16244;51.956;12.980;2023-03-24T00:00:25;1.07;;;1.07;;
29200;SDS011;16244;51.956;12.980;2023-03-24T00:02:53;1.10;;;1.00;;
29200;SDS011;16244;51.956;12.980;2023-03-24T00:05:21;1.30;;;1.20;;
29200;SDS011;16244;51.956;12.980;2023-03-24T00:07:49;1.00;;;1.00;;
29200;SDS011;16244;51.956;12.980;2023-03-24T00:10:18;2.10;;;1.13;;
29200;SDS011;16244;51.956;12.980;2023-03-24T00:12:48;1.00;;;1.00;;
29200;SDS011;16244;51.956;12.980;2023-03-24T00:15:18;1.00;;;1.00;;
29200;SDS011;16244;51.956;12.980;2023-03-24T00:17:49;1.33;;;1.23;;
29200;SDS011;16244;51.956;12.980;2023-03-24T00:20:18;1.10;;;1.10;;
29200;SDS011;16244;51.956;12.980;2023-03-24T00:22:48;1.53;;;1.13;;
29200;SDS011;16244;51.956;12.980;2023-03-24T00:25:22;1.33;;;1.33;;
29200;SDS011;16244;51.956;12.980;2023-03-24T00:27:55;1.10;;;1.10;;
29200;SDS011;16244;51.956;12.980;2023-03-24T00:30:23;1.53;;;0.93;;
29200;SDS011;16244;51.956;12.980;2023-03-24T00:32:51;0.83;;;0.83;;
29200;SDS011;16244;51.956;12.980;2023-03-24T00:35:22;1.17;;;1.17;;
29200;SDS011;16244;51.956;12.980;2023-03-24T00:37:50;0.83;;;0.83;;
29200;SDS011;16244;51.956;12.980;2023-03-24T00:40:18;1.10;;;1.10;;
29200;SDS011;16244;51.956;12.980;2023-03-24T00:42:47;1.10;;;1.10;;
29200;SDS011;16244;51.956;12.980;2023-03-24T00:45:18;1.07;;;0.97;;
29200;SDS011;16244;51.956;12.980;2023-03-24T00:47:48;1.10;;;1.10;;
29200;SDS011;16244;51.956;12.980;2023-03-24T00:50:19;1.10;;;1.10;;
29200;SDS011;16244;51.956;12.980;2023-03-24T00:52:51;2.97;;;0.90;;
29200;SDS011;16244;51.956;12.980;2023-03-24T00:55:20;1.30;;;1.20;;
29200;SDS011;16244;51.956;12.980;2023-03-24T00:57:48;2.10;;;1.40;;
29200;SDS011;16244;51.956;12.980;2023-03-24T01:00:18;1.80;;;1.30;;
29200;SDS011;16244;51.956;12.980;2023-03-24T01:02:49;1.10;;;1.10;;
29200;SDS011;16244;51.956;12.980;2023-03-24T01:05:18;2.80;;;1.53;;
29200;SDS011;16244;51.956;12.980;2023-03-24T01:07:46;1.57;;;1.57;;
29200;SDS011;16244;51.956;12.980;2023-03-24T01:10:17;1.10;;;1.10;;
29200;SDS011;16244;51.956;12.980;2023-03-24T01:12:46;1.20;;;1.20;;
29200;SDS011;16244;51.956;12.980;2023-03-24T01:15:15;1.23;;;1.23;;
29200;SDS011;16244;51.956;12.980;2023-03-24T01:17:46;5.13;;;1.20;;
29200;SDS011;16244;51.956;12.980;2023-03-24T01:20:14;1.50;;;1.50;;
29200;SDS011;16244;51.956;12.980;2023-03-24T01:22:45;1.30;;;1.30;;
29200;SDS011;16244;51.956;12.980;2023-03-24T01:25:14;1.10;;;1.10;;
29200;SDS011;16244;51.956;12.980;2023-03-24T01:27:45;6.27;;;1.10;;
29200;SDS011;16244;51.956;12.980;2023-03-24T01:30:14;1.20;;;1.20;;
29200;SDS011;16244;51.956;12.980;2023-03-24T01:32:45;1.13;;;0.87;;
29200;SDS011;16244;51.956;12.980;2023-03-24T01:35:13;1.03;;;1.00;;
29200;SDS011;16244;51.956;12.980;2023-03-24T01:37:41;1.60;;;1.50;;
29200;SDS011;16244;51.956;12.980;2023-03-24T01:40:10;0.90;;;0.90;;
29200;SDS011;16244;51.956;12.980;2023-03-24T01:42:42;1.67;;;0.90;;
29200;SDS011;16244;51.956;12.980;2023-03-24T01:48:11;0.97;;;0.97;;
29200;SDS011;16244;51.956;12.980;2023-03-24T01:50:41;1.10;;;1.10;;
29200;SDS011;16244;51.956;12.980;2023-03-24T01:53:11;0.77;;;0.77;;
29200;SDS011;16244;51.956;12.980;2023-03-24T01:55:41;0.80;;;0.80;;
29200;SDS011;16244;51.956;12.980;2023-03-24T01:58:11;1.00;;;1.00;;
29200;SDS011;16244;51.956;12.980;2023-03-24T02:00:39;1.10;;;1.10;;
29200;SDS011;16244;51.956;12.980;2023-03-24T02:03:09;0.80;;;0.80;;
29200;SDS011;16244;51.956;12.980;2023-03-24T02:05:40;1.30;;;1.17;;
29200;SDS011;16244;51.956;12.980;2023-03-24T02:08:12;1.10;;;1.10;;
29200;SDS011;16244;51.956;12.980;2023-03-24T02:10:43;8.43;;;1.20;;
29200;SDS011;16244;51.956;12.980;2023-03-24T02:13:11;0.97;;;0.80;;
29200;SDS011;16244;51.956;12.980;2023-03-24T02:15:40;1.13;;;1.13;;
29200;SDS011;16244;51.956;12.980;2023-03-24T02:18:15;2.83;;;1.03;;
29200;SDS011;16244;51.956;12.980;2023-03-24T02:24:06;0.80;;;0.80;;
29200;SDS011;16244;51.956;12.980;2023-03-24T02:26:58;1.27;;;1.00;;
29200;SDS011;16244;51.956;12.980;2023-03-24T02:36:08;2.07;;;1.97;;
29200;SDS011;16244;51.956;12.980;2023-03-24T02:39:17;1.60;;;1.60;;
29200;SDS011;16244;51.956;12.980;2023-03-24T02:41:57;1.53;;;1.53;;
29200;SDS011;16244;51.956;12.980;2023-03-24T02:44:33;2.97;;;1.63;;
29200;SDS011;16244;51.956;12.980;2023-03-24T02:47:09;1.67;;;1.57;;
29200;SDS011;16244;51.956;12.980;2023-03-24T02:49:42;2.33;;;1.90;;
29200;SDS011;16244;51.956;12.980;2023-03-24T02:52:19;2.27;;;2.17;;
29200;SDS011;16244;51.956;12.980;2023-03-24T02:54:55;2.63;;;2.27;;
29200;SDS011;16244;51.956;12.980;2023-03-24T02:57:28;2.50;;;2.23;;
29200;SDS011;16244;51.956;12.980;2023-03-24T02:59:58;2.47;;;2.37;;
29200;SDS011;16244;51.956;12.980;2023-03-24T03:02:38;2.17;;;2.17;;
29200;SDS011;16244;51.956;12.980;2023-03-24T03:05:12;2.33;;;2.33;;
29200;SDS011;16244;51.956;12.980;2023-03-24T03:07:44;3.10;;;2.90;;
29200;SDS011;16244;51.956;12.980;2023-03-24T03:10:16;2.27;;;2.27;;
29200;SDS011;16244;51.956;12.980;2023-03-24T03:12:47;2.90;;;2.70;;
29200;SDS011;16244;51.956;12.980;2023-03-24T03:15:20;3.07;;;2.87;;
29200;SDS011;16244;51.956;12.980;2023-03-24T03:17:50;2.77;;;2.67;;
29200;SDS011;16244;51.956;12.980;2023-03-24T03:20:23;2.93;;;2.70;;
29200;SDS011;16244;51.956;12.980;2023-03-24T03:22:57;2.90;;;2.80;;
29200;SDS011;16244;51.956;12.980;2023-03-24T03:25:32;3.07;;;2.80;;
29200;SDS011;16244;51.956;12.980;2023-03-24T03:28:03;6.93;;;3.10;;
29200;SDS011;16244;51.956;12.980;2023-03-24T03:30:33;3.63;;;3.33;;
29200;SDS011;16244;51.956;12.980;2023-03-24T03:33:04;4.40;;;4.10;;
29200;SDS011;16244;51.956;12.980;2023-03-24T03:35:37;4.37;;;4.20;;
29200;SDS011;16244;51.956;12.980;2023-03-24T03:38:09;3.50;;;3.30;;
29200;SDS011;16244;51.956;12.980;2023-03-24T03:40:46;4.27;;;4.07;;
29200;SDS011;16244;51.956;12.980;2023-03-24T03:43:17;3.70;;;3.40;;
29200;SDS011;16244;51.956;12.980;2023-03-24T03:45:44;4.00;;;3.80;;
29200;SDS011;16244;51.956;12.980;2023-03-24T03:48:12;4.53;;;4.33;;
29200;SDS011;16244;51.956;12.980;2023-03-24T03:50:42;3.43;;;3.33;;
29200;SDS011;16244;51.956;12.980;2023-03-24T03:53:10;6.53;;;3.70;;
29200;SDS011;16244;51.956;12.980;2023-03-24T03:55:40;4.03;;;3.70;;
29200;SDS011;16244;51.956;12.980;2023-03-24T03:58:10;6.20;;;3.93;;
29200;SDS011;16244;51.956;12.980;2023-03-24T04:00:37;5.63;;;3.83;;
29200;SDS011;16244;51.956;12.980;2023-03-24T04:03:10;3.97;;;3.87;;
29200;SDS011;16244;51.956;12.980;2023-03-24T04:05:55;4.03;;;3.83;;
29200;SDS011;16244;51.956;12.980;2023-03-24T04:08:31;4.43;;;4.13;;
29200;SDS011;16244;51.956;12.980;2023-03-24T04:11:21;4.70;;;4.53;;
29200;SDS011;16244;51.956;12.980;2023-03-24T04:14:04;4.70;;;4.40;;
29200;SDS011;16244;51.956;12.980;2023-03-24T04:16:45;4.90;;;4.07;;
29200;SDS011;16244;51.956;12.980;2023-03-24T04:19:27;4.00;;;3.80;;
29200;SDS011;16244;51.956;12.980;2023-03-24T04:22:05;4.20;;;3.90;;
29200;SDS011;16244;51.956;12.980;2023-03-24T04:24:46;4.83;;;4.20;;
29200;SDS011;16244;51.956;12.980;2023-03-24T04:27:20;4.27;;;4.13;;
29200;SDS011;16244;51.956;12.980;2023-03-24T04:29:57;4.27;;;4.07;;
29200;SDS011;16244;51.956;12.980;2023-03-24T04:32:34;4.80;;;4.60;;
29200;SDS011;16244;51.956;12.980;2023-03-24T04:35:09;4.27;;;3.93;;
29200;SDS011;16244;51.956;12.980;2023-03-24T04:37:45;3.80;;;3.50;;
29200;SDS011;16244;51.956;12.980;2023-03-24T04:40:14;3.97;;;3.77;;
29200;SDS011;16244;51.956;12.980;2023-03-24T04:42:43;5.00;;;4.60;;
29200;SDS011;16244;51.956;12.980;2023-03-24T04:45:18;6.20;;;4.20;;
29200;SDS011;16244;51.956;12.980;2023-03-24T04:47:51;4.57;;;4.37;;
29200;SDS011;16244;51.956;12.980;2023-03-24T04:50:26;4.00;;;3.70;;
29200;SDS011;16244;51.956;12.980;2023-03-24T04:52:56;4.10;;;4.00;;
29200;SDS011;16244;51.956;12.980;2023-03-24T04:55:31;3.77;;;3.67;;
29200;SDS011;16244;51.956;12.980;2023-03-24T04:58:13;3.90;;;3.80;;
29200;SDS011;16244;51.956;12.980;2023-03-24T05:00:42;3.70;;;3.60;;
29200;SDS011;16244;51.956;12.980;2023-03-24T05:03:10;3.67;;;3.37;;
29200;SDS011;16244;51.956;12.980;2023-03-24T05:05:39;3.80;;;3.70;;
29200;SDS011;16244;51.956;12.980;2023-03-24T05:08:07;4.50;;;4.20;;
29200;SDS011;16244;51.956;12.980;2023-03-24T05:10:34;5.20;;;3.90;;
29200;SDS011;16244;51.956;12.980;2023-03-24T05:13:02;3.67;;;3.57;;
29200;SDS011;16244;51.956;12.980;2023-03-24T05:15:32;16.63;;;3.80;;
29200;SDS011;16244;51.956;12.980;2023-03-24T05:18:01;4.47;;;4.07;;
29200;SDS011;16244;51.956;12.980;2023-03-24T05:20:29;4.03;;;3.83;;
29200;SDS011;16244;51.956;12.980;2023-03-24T05:22:57;4.90;;;4.47;;
29200;SDS011;16244;51.956;12.980;2023-03-24T05:25:24;5.20;;;4.80;;
29200;SDS011;16244;51.956;12.980;2023-03-24T05:27:52;4.20;;;3.90;;
29200;SDS011;16244;51.956;12.980;2023-03-24T05:30:20;7.43;;;3.27;;
29200;SDS011;16244;51.956;12.980;2023-03-24T05:32:48;4.40;;;4.10;;
29200;SDS011;16244;51.956;12.980;2023-03-24T05:35:17;3.50;;;3.40;;
29200;SDS011;16244;51.956;12.980;2023-03-24T05:37:44;3.47;;;3.37;;
29200;SDS011;16244;51.956;12.980;2023-03-24T05:40:12;3.90;;;3.70;;
29200;SDS011;16244;51.956;12.980;2023-03-24T05:42:40;5.17;;;4.70;;
29200;SDS011;16244;51.956;12.980;2023-03-24T05:45:10;3.93;;;3.80;;
29200;SDS011;16244;51.956;12.980;2023-03-24T05:47:37;3.57;;;3.47;;
29200;SDS011;16244;51.956;12.980;2023-03-24T05:50:05;4.00;;;3.90;;
29200;SDS011;16244;51.956;12.980;2023-03-24T05:52:34;3.70;;;3.60;;
29200;SDS011;16244;51.956;12.980;2023-03-24T05:55:02;3.70;;;3.57;;
29200;SDS011;16244;51.956;12.980;2023-03-24T05:57:29;4.73;;;4.30;;
29200;SDS011;16244;51.956;12.980;2023-03-24T05:59:59;3.60;;;3.50;;
29200;SDS011;16244;51.956;12.980;2023-03-24T06:02:27;3.57;;;3.37;;
29200;SDS011;16244;51.956;12.980;2023-03-24T06:04:54;3.40;;;3.30;;
29200;SDS011;16244;51.956;12.980;2023-03-24T06:07:22;3.77;;;3.47;;
29200;SDS011;16244;51.956;12.980;2023-03-24T06:09:52;3.20;;;2.93;;
29200;SDS011;16244;51.956;12.980;2023-03-24T06:12:22;2.80;;;2.70;;
29200;SDS011;16244;51.956;12.980;2023-03-24T06:14:50;4.27;;;3.97;;
29200;SDS011;16244;51.956;12.980;2023-03-24T06:17:17;3.20;;;2.90;;
29200;SDS011;16244;51.956;12.980;2023-03-24T06:19:46;3.50;;;3.40;;
29200;SDS011;16244;51.956;12.980;2023-03-24T06:22:15;3.40;;;3.20;;
29200;SDS011;16244;51.956;12.980;2023-03-24T06:24:42;2.70;;;2.60;;
29200;SDS011;16244;51.956;12.980;2023-03-24T06:27:13;2.90;;;2.83;;
29200;SDS011;16244;51.956;12.980;2023-03-24T06:29:40;3.37;;;3.07;;
29200;SDS011;16244;51.956;12.980;2023-03-24T06:32:08;7.83;;;3.00;;
29200;SDS011;16244;51.956;12.980;2023-03-24T06:34:36;3.53;;;3.43;;
29200;SDS011;16244;51.956;12.980;2023-03-24T06:37:05;5.60;;;3.73;;
29200;SDS011;16244;51.956;12.980;2023-03-24T06:39:32;7.03;;;6.27;;
29200;SDS011;16244;51.956;12.980;2023-03-24T06:42:00;13.77;;;11.47;;
29200;SDS011;16244;51.956;12.980;2023-03-24T06:44:29;14.40;;;12.10;;
29200;SDS011;16244;51.956;12.980;2023-03-24T06:46:56;10.97;;;10.07;;
29200;SDS011;16244;51.956;12.980;2023-03-24T06:49:24;4.33;;;4.23;;
29200;SDS011;16244;51.956;12.980;2023-03-24T06:51:51;18.83;;;8.47;;
29200;SDS011;16244;51.956;12.980;2023-03-24T06:54:19;6.97;;;6.27;;
29200;SDS011;16244;51.956;12.980;2023-03-24T06:56:47;9.60;;;7.43;;
29200;SDS011;16244;51.956;12.980;2023-03-24T06:59:14;2.60;;;2.50;;
29200;SDS011;16244;51.956;12.980;2023-03-24T07:01:44;3.23;;;3.13;;
29200;SDS011;16244;51.956;12.980;2023-03-24T07:04:12;2.50;;;2.50;;
29200;SDS011;16244;51.956;12.980;2023-03-24T07:06:40;2.60;;;2.50;;
29200;SDS011;16244;51.956;12.980;2023-03-24T07:09:08;2.70;;;2.67;;
29200;SDS011;16244;51.956;12.980;2023-03-24T07:11:36;4.70;;;4.40;;
29200;SDS011;16244;51.956;12.980;2023-03-24T07:14:05;3.50;;;3.30;;
29200;SDS011;16244;51.956;12.980;2023-03-24T07:16:33;3.20;;;3.10;;
29200;SDS011;16244;51.956;12.980;2023-03-24T07:19:02;3.10;;;2.90;;
29200;SDS011;16244;51.956;12.980;2023-03-24T07:21:29;3.07;;;2.97;;
29200;SDS011;16244;51.956;12.980;2023-03-24T07:23:57;3.67;;;3.40;;
29200;SDS011;16244;51.956;12.980;2023-03-24T07:26:29;3.90;;;2.73;;
29200;SDS011;16244;51.956;12.980;2023-03-24T07:28:56;2.60;;;2.50;;
29200;SDS011;16244;51.956;12.980;2023-03-24T07:31:24;9.53;;;2.93;;
29200;SDS011;16244;51.956;12.980;2023-03-24T07:33:51;1.90;;;1.90;;
29200;SDS011;16244;51.956;12.980;2023-03-24T07:36:20;2.10;;;2.00;;
29200;SDS011;16244;51.956;12.980;2023-03-24T07:38:48;3.20;;;3.00;;
29200;SDS011;16244;51.956;12.980;2023-03-24T07:41:15;3.00;;;2.90;;
29200;SDS011;16244;51.956;12.980;2023-03-24T07:43:43;2.80;;;2.70;;
29200;SDS011;16244;51.956;12.980;2023-03-24T07:46:10;3.63;;;3.17;;
29200;SDS011;16244;51.956;12.980;2023-03-24T07:48:38;3.13;;;3.03;;
29200;SDS011;16244;51.956;12.980;2023-03-24T07:51:06;3.83;;;3.50;;
29200;SDS011;16244;51.956;12.980;2023-03-24T07:53:34;8.07;;;6.87;;
29200;SDS011;16244;51.956;12.980;2023-03-24T07:56:02;13.83;;;8.63;;
29200;SDS011;16244;51.956;12.980;2023-03-24T07:58:30;51.40;;;21.07;;
29200;SDS011;16244;51.956;12.980;2023-03-24T08:00:57;37.07;;;15.43;;
29200;SDS011;16244;51.956;12.980;2023-03-24T08:03:26;12.60;;;4.70;;
29200;SDS011;16244;51.956;12.980;2023-03-24T08:05:54;7.90;;;4.17;;
29200;SDS011;16244;51.956;12.980;2023-03-24T08:08:21;3.20;;;3.00;;
29200;SDS011;16244;51.956;12.980;2023-03-24T08:10:50;2.50;;;2.50;;
29200;SDS011;16244;51.956;12.980;2023-03-24T08:13:18;2.90;;;2.70;;
29200;SDS011;16244;51.956;12.980;2023-03-24T08:15:45;2.50;;;2.33;;
29200;SDS011;16244;51.956;12.980;2023-03-24T08:18:13;2.50;;;2.50;;
29200;SDS011;16244;51.956;12.980;2023-03-24T08:20:40;3.20;;;3.10;;
29200;SDS011;16244;51.956;12.980;2023-03-24T08:23:08;3.33;;;3.10;;
29200;SDS011;16244;51.956;12.980;2023-03-24T08:25:36;4.13;;;2.87;;
29200;SDS011;16244;51.956;12.980;2023-03-24T08:28:05;2.67;;;2.57;;
29200;SDS011;16244;51.956;12.980;2023-03-24T08:30:32;2.73;;;2.63;;
29200;SDS011;16244;51.956;12.980;2023-03-24T08:33:01;2.30;;;2.30;;
29200;SDS011;16244;51.956;12.980;2023-03-24T08:35:30;3.23;;;3.03;;
29200;SDS011;16244;51.956;12.980;2023-03-24T08:38:03;2.60;;;2.40;;
29200;SDS011;16244;51.956;12.980;2023-03-24T08:40:31;2.70;;;2.60;;
29200;SDS011;16244;51.956;12.980;2023-03-24T08:43:00;3.00;;;2.90;;
29200;SDS011;16244;51.956;12.980;2023-03-24T08:45:30;3.40;;;3.10;;
29200;SDS011;16244;51.956;12.980;2023-03-24T08:47:59;2.57;;;2.47;;
29200;SDS011;16244;51.956;12.980;2023-03-24T08:50:29;3.13;;;2.93;;
29200;SDS011;16244;51.956;12.980;2023-03-24T08:52:59;3.50;;;3.30;;
29200;SDS011;16244;51.956;12.980;2023-03-24T08:55:27;2.57;;;2.57;;
29200;SDS011;16244;51.956;12.980;2023-03-24T08:57:55;2.93;;;2.73;;
29200;SDS011;16244;51.956;12.980;2023-03-24T09:00:23;2.60;;;2.60;;
29200;SDS011;16244;51.956;12.980;2023-03-24T09:02:52;2.33;;;2.33;;
29200;SDS011;16244;51.956;12.980;2023-03-24T09:05:21;2.30;;;2.13;;
29200;SDS011;16244;51.956;12.980;2023-03-24T09:07:50;2.43;;;2.10;;
29200;SDS011;16244;51.956;12.980;2023-03-24T09:10:17;3.30;;;3.20;;
29200;SDS011;16244;51.956;12.980;2023-03-24T09:12:47;2.57;;;2.53;;
29200;SDS011;16244;51.956;12.980;2023-03-24T09:15:15;2.27;;;2.17;;
29200;SDS011;16244;51.956;12.980;2023-03-24T09:17:43;2.03;;;1.93;;
29200;SDS011;16244;51.956;12.980;2023-03-24T09:20:13;4.63;;;1.43;;
29200;SDS011;16244;51.956;12.980;2023-03-24T09:22:42;1.23;;;1.23;;
29200;SDS011;16244;51.956;12.980;2023-03-24T09:25:16;1.30;;;1.30;;
29200;SDS011;16244;51.956;12.980;2023-03-24T09:27:45;1.20;;;1.20;;
29200;SDS011;16244;51.956;12.980;2023-03-24T09:30:14;1.30;;;1.30;;
29200;SDS011;16244;51.956;12.980;2023-03-24T09:32:43;1.20;;;1.20;;
29200;SDS011;16244;51.956;12.980;2023-03-24T09:35:12;1.73;;;1.00;;
29200;SDS011;16244;51.956;12.980;2023-03-24T09:37:41;1.07;;;1.07;;
29200;SDS011;16244;51.956;12.980;2023-03-24T09:40:13;3.13;;;1.20;;
29200;SDS011;16244;51.956;12.980;2023-03-24T09:42:45;1.50;;;1.50;;
29200;SDS011;16244;51.956;12.980;2023-03-24T09:45:20;1.27;;;1.17;;
29200;SDS011;16244;51.956;12.980;2023-03-24T09:47:51;1.47;;;1.47;;
29200;SDS011;16244;51.956;12.980;2023-03-24T09:50:26;1.33;;;1.33;;
29200;SDS011;16244;51.956;12.980;2023-03-24T09:52:58;0.90;;;0.90;;
29200;SDS011;16244;51.956;12.980;2023-03-24T09:55:31;1.43;;;1.17;;
29200;SDS011;16244;51.956;12.980;2023-03-24T09:58:00;1.30;;;1.30;;
29200;SDS011;16244;51.956;12.980;2023-03-24T10:00:31;1.40;;;1.40;;
29200;SDS011;16244;51.956;12.980;2023-03-24T10:02:59;1.20;;;1.20;;
29200;SDS011;16244;51.956;12.980;2023-03-24T10:05:38;2.83;;;1.00;;
29200;SDS011;16244;51.956;12.980;2023-03-24T10:08:11;1.17;;;1.17;;
29200;SDS011;16244;51.956;12.980;2023-03-24T10:10:47;4.43;;;4.13;;
29200;SDS011;16244;51.956;12.980;2023-03-24T10:13:24;1.70;;;1.70;;
29200;SDS011;16244;51.956;12.980;2023-03-24T10:16:00;1.10;;;1.10;;
29200;SDS011;16244;51.956;12.980;2023-03-24T10:18:33;1.30;;;1.30;;
29200;SDS011;16244;51.956;12.980;2023-03-24T10:21:09;1.43;;;1.43;;
29200;SDS011;16244;51.956;12.980;2023-03-24T10:23:46;0.90;;;0.90;;
29200;SDS011;16244;51.956;12.980;2023-03-24T10:26:23;1.80;;;1.80;;
29200;SDS011;16244;51.956;12.980;2023-03-24T10:29:02;0.90;;;0.90;;
29200;SDS011;16244;51.956;12.980;2023-03-24T10:31:48;1.00;;;1.00;;
29200;SDS011;16244;51.956;12.980;2023-03-24T10:34:17;0.80;;;0.80;;
29200;SDS011;16244;51.956;12.980;2023-03-24T10:36:47;1.03;;;0.93;;
29200;SDS011;16244;51.956;12.980;2023-03-24T10:39:15;1.43;;;0.97;;
29200;SDS011;16244;51.956;12.980;2023-03-24T10:41:44;0.90;;;0.90;;
29200;SDS011;16244;51.956;12.980;2023-03-24T10:44:12;1.90;;;0.87;;
29200;SDS011;16244;51.956;12.980;2023-03-24T10:46:42;1.00;;;0.87;;
29200;SDS011;16244;51.956;12.980;2023-03-24T10:49:18;2.80;;;1.50;;
29200;SDS011;16244;51.956;12.980;2023-03-24T10:51:48;0.80;;;0.80;;
29200;SDS011;16244;51.956;12.980;2023-03-24T10:54:17;1.03;;;1.03;;
29200;SDS011;16244;51.956;12.980;2023-03-24T10:56:47;1.87;;;1.00;;
29200;SDS011;16244;51.956;12.980;2023-03-24T10:59:20;1.23;;;1.23;;
29200;SDS011;16244;51.956;12.980;2023-03-24T11:01:57;1.03;;;1.03;;
29200;SDS011;16244;51.956;12.980;2023-03-24T11:04:26;1.50;;;1.40;;
29200;SDS011;16244;51.956;12.980;2023-03-24T11:07:00;7.30;;;1.20;;
29200;SDS011;16244;51.956;12.980;2023-03-24T11:09:40;0.93;;;0.93;;
29200;SDS011;16244;51.956;12.980;2023-03-24T11:12:18;0.87;;;0.87;;
29200;SDS011;16244;51.956;12.980;2023-03-24T11:14:48;0.93;;;0.70;;
29200;SDS011;16244;51.956;12.980;2023-03-24T11:17:15;1.10;;;0.80;;
29200;SDS011;16244;51.956;12.980;2023-03-24T11:19:49;0.80;;;0.80;;
29200;SDS011;16244;51.956;12.980;2023-03-24T11:22:19;0.70;;;0.70;;
29200;SDS011;16244;51.956;12.980;2023-03-24T11:24:48;0.90;;;0.80;;
29200;SDS011;16244;51.956;12.980;2023-03-24T11:27:18;0.70;;;0.70;;
29200;SDS011;16244;51.956;12.980;2023-03-24T11:29:48;3.10;;;2.90;;
29200;SDS011;16244;51.956;12.980;2023-03-24T11:32:21;0.50;;;0.50;;
29200;SDS011;16244;51.956;12.980;2023-03-24T11:34:55;0.70;;;0.70;;
29200;SDS011;16244;51.956;12.980;2023-03-24T11:37:29;0.83;;;0.83;;
29200;SDS011;16244;51.956;12.980;2023-03-24T11:40:18;0.57;;;0.57;;
29200;SDS011;16244;51.956;12.980;2023-03-24T11:42:49;6.93;;;0.50;;
29200;SDS011;16244;51.956;12.980;2023-03-24T11:45:21;0.70;;;0.70;;
29200;SDS011;16244;51.956;12.980;2023-03-24T11:47:55;0.80;;;0.57;;
29200;SDS011;16244;51.956;12.980;2023-03-24T11:50:26;0.50;;;0.50;;
29200;SDS011;16244;51.956;12.980;2023-03-24T11:52:58;0.73;;;0.50;;
29200;SDS011;16244;51.956;12.980;2023-03-24T11:55:34;1.60;;;0.60;;
29200;SDS011;16244;51.956;12.980;2023-03-24T11:58:08;1.63;;;0.60;;
29200;SDS011;16244;51.956;12.980;2023-03-24T12:00:42;0.90;;;0.60;;
29200;SDS011;16244;51.956;12.980;2023-03-24T12:06:18;0.60;;;0.60;;
29200;SDS011;16244;51.956;12.980;2023-03-24T12:09:04;1.37;;;0.60;;
29200;SDS011;16244;51.956;12.980;2023-03-24T12:11:47;0.60;;;0.60;;
29200;SDS011;16244;51.956;12.980;2023-03-24T12:14:28;1.13;;;1.13;;
29200;SDS011;16244;51.956;12.980;2023-03-24T12:17:04;0.60;;;0.60;;
29200;SDS011;16244;51.956;12.980;2023-03-24T12:19:41;1.90;;;0.80;;
29200;SDS011;16244;51.956;12.980;2023-03-24T12:22:40;0.60;;;0.60;;
29200;SDS011;16244;51.956;12.980;2023-03-24T12:25:22;0.77;;;0.60;;
29200;SDS011;16244;51.956;12.980;2023-03-24T12:28:01;0.60;;;0.60;;
29200;SDS011;16244;51.956;12.980;2023-03-24T12:30:43;0.50;;;0.50;;
29200;SDS011;16244;51.956;12.980;2023-03-24T12:33:21;2.17;;;0.70;;
29200;SDS011;16244;51.956;12.980;2023-03-24T12:36:09;0.70;;;0.70;;
29200;SDS011;16244;51.956;12.980;2023-03-24T12:38:58;0.70;;;0.70;;
29200;SDS011;16244;51.956;12.980;2023-03-24T12:41:35;0.70;;;0.70;;
29200;SDS011;16244;51.956;12.980;2023-03-24T12:47:25;0.80;;;0.70;;
29200;SDS011;16244;51.956;12.980;2023-03-24T12:50:02;0.80;;;0.80;;
29200;SDS011;16244;51.956;12.980;2023-03-24T12:52:57;1.90;;;0.80;;
29200;SDS011;16244;51.956;12.980;2023-03-24T12:55:34;1.47;;;0.70;;
29200;SDS011;16244;51.956;12.980;2023-03-24T12:58:10;0.60;;;0.60;;
29200;SDS011;16244;51.956;12.980;2023-03-24T13:00:45;1.10;;;0.80;;
29200;SDS011;16244;51.956;12.980;2023-03-24T13:03:25;1.27;;;1.03;;
29200;SDS011;16244;51.956;12.980;2023-03-24T13:06:03;1.50;;;1.40;;
29200;SDS011;16244;51.956;12.980;2023-03-24T13:08:40;1.80;;;0.70;;
29200;SDS011;16244;51.956;12.980;2023-03-24T13:11:14;0.60;;;0.60;;
29200;SDS011;16244;51.956;12.980;2023-03-24T13:13:46;3.13;;;1.27;;
29200;SDS011;16244;51.956;12.980;2023-03-24T13:16:15;0.50;;;0.50;;
29200;SDS011;16244;51.956;12.980;2023-03-24T13:18:49;0.70;;;0.70;;
29200;SDS011;16244;51.956;12.980;2023-03-24T13:21:19;0.60;;;0.60;;
29200;SDS011;16244;51.956;12.980;2023-03-24T13:23:49;0.77;;;0.77;;
29200;SDS011;16244;51.956;12.980;2023-03-24T13:26:23;1.17;;;0.93;;
29200;SDS011;16244;51.956;12.980;2023-03-24T13:29:03;0.93;;;0.93;;
29200;SDS011;16244;51.956;12.980;2023-03-24T13:31:48;0.83;;;0.83;;
29200;SDS011;16244;51.956;12.980;2023-03-24T13:34:21;2.20;;;2.10;;
29200;SDS011;16244;51.956;12.980;2023-03-24T13:36:57;4.23;;;0.90;;
29200;SDS011;16244;51.956;12.980;2023-03-24T13:39:28;0.70;;;0.70;;
29200;SDS011;16244;51.956;12.980;2023-03-24T13:41:59;1.50;;;0.90;;
29200;SDS011;16244;51.956;12.980;2023-03-24T13:44:34;1.27;;;0.67;;
29200;SDS011;16244;51.956;12.980;2023-03-24T13:47:07;0.73;;;0.73;;
29200;SDS011;16244;51.956;12.980;2023-03-24T13:49:40;0.80;;;0.63;;
29200;SDS011;16244;51.956;12.980;2023-03-24T13:52:20;0.80;;;0.70;;
29200;SDS011;16244;51.956;12.980;2023-03-24T13:54:54;0.80;;;0.80;;
29200;SDS011;16244;51.956;12.980;2023-03-24T13:57:24;0.70;;;0.70;;
29200;SDS011;16244;51.956;12.980;2023-03-24T13:59:57;1.27;;;1.27;;
29200;SDS011;16244;51.956;12.980;2023-03-24T14:02:43;0.80;;;0.80;;
29200;SDS011;16244;51.956;12.980;2023-03-24T14:08:33;1.27;;;0.90;;
29200;SDS011;16244;51.956;12.980;2023-03-24T14:14:18;7.23;;;1.43;;
29200;SDS011;16244;51.956;12.980;2023-03-24T14:16:52;0.70;;;0.70;;
29200;SDS011;16244;51.956;12.980;2023-03-24T14:19:36;0.67;;;0.63;;
29200;SDS011;16244;51.956;12.980;2023-03-24T14:22:09;0.73;;;0.73;;
29200;SDS011;16244;51.956;12.980;2023-03-24T14:24:40;2.33;;;0.60;;
29200;SDS011;16244;51.956;12.980;2023-03-24T14:27:22;1.07;;;0.73;;
29200;SDS011;16244;51.956;12.980;2023-03-24T14:29:59;2.03;;;1.20;;
29200;SDS011;16244;51.956;12.980;2023-03-24T14:32:37;0.80;;;0.80;;
29200;SDS011;16244;51.956;12.980;2023-03-24T14:35:17;0.60;;;0.60;;
29200;SDS011;16244;51.956;12.980;2023-03-24T14:37:50;2.70;;;0.60;;
29200;SDS011;16244;51.956;12.980;2023-03-24T14:40:23;0.70;;;0.70;;
29200;SDS011;16244;51.956;12.980;2023-03-24T14:43:04;0.70;;;0.70;;
29200;SDS011;16244;51.956;12.980;2023-03-24T14:48:34;0.70;;;0.70;;
29200;SDS011;16244;51.956;12.980;2023-03-24T14:51:26;0.60;;;0.60;;
29200;SDS011;16244;51.956;12.980;2023-03-24T14:54:01;0.60;;;0.60;;
29200;SDS011;16244;51.956;12.980;2023-03-24T14:56:32;0.70;;;0.70;;
29200;SDS011;16244;51.956;12.980;2023-03-24T14:59:04;0.70;;;0.70;;
29200;SDS011;16244;51.956;12.980;2023-03-24T15:01:36;0.70;;;0.70;;
29200;SDS011;16244;51.956;12.980;2023-03-24T15:04:11;1.07;;;0.67;;
29200;SDS011;16244;51.956;12.980;2023-03-24T15:06:42;0.80;;;0.80;;
29200;SDS011;16244;51.956;12.980;2023-03-24T15:09:12;2.00;;;0.90;;
29200;SDS011;16244;51.956;12.980;2023-03-24T15:11:42;0.67;;;0.67;;
29200;SDS011;16244;51.956;12.980;2023-03-24T15:14:18;0.63;;;0.63;;
29200;SDS011;16244;51.956;12.980;2023-03-24T15:16:50;1.13;;;0.80;;
29200;SDS011;16244;51.956;12.980;2023-03-24T15:19:21;0.53;;;0.53;;
29200;SDS011;16244;51.956;12.980;2023-03-24T15:21:55;0.83;;;0.67;;
29200;SDS011;16244;51.956;12.980;2023-03-24T15:24:26;1.63;;;0.60;;
29200;SDS011;16244;51.956;12.980;2023-03-24T15:27:12;0.70;;;0.70;;
29200;SDS011;16244;51.956;12.980;2023-03-24T15:29:45;1.07;;;0.73;;